Time;durP1;ratioP1;P1;durP2;ratioP2;P2;SDS_P1;SDS_P2;PMS_P1;PMS_P2;Temp;Humidity;BMP_temperature;BMP_pressure;BME280_temperature;BME280_humidity;BME280_pressure;Samples;Min_cycle;Max_cycle;Signal;HPM_P1;HPM_P2
2023/01/11 00:00:48;;;;;;;5.40;4.72;;;9.70;99.90;;;;;;5015071;28;99068;-74
2023/01/11 00:03:16;;;;;;;5.10;4.70;;;9.70;99.90;;;;;;5014549;28;98527;-74
2023/01/11 00:05:44;;;;;;;4.60;4.20;;;9.80;99.90;;;;;;4996722;28;99389;-74
2023/01/11 00:08:11;;;;;;;4.82;4.43;;;9.80;99.90;;;;;;4979380;28;101303;-74
2023/01/11 00:10:39;;;;;;;5.43;4.90;;;9.80;99.90;;;;;;5014595;28;98526;-74
2023/01/11 00:13:06;;;;;;;5.93;5.28;;;9.80;99.90;;;;;;5014748;28;97795;-74
2023/01/11 00:15:35;;;;;;;6.03;5.53;;;9.80;99.90;;;;;;4995111;28;102089;-74
2023/01/11 00:18:02;;;;;;;5.35;4.82;;;9.80;99.90;;;;;;4996488;28;99353;-74
2023/01/11 00:20:29;;;;;;;6.28;5.68;;;9.80;99.90;;;;;;5014103;28;99294;-74
2023/01/11 00:22:57;;;;;;;5.85;5.35;;;9.80;99.90;;;;;;4979947;28;98660;-74
2023/01/11 00:25:24;;;;;;;6.25;5.65;;;9.90;99.90;;;;;;5013406;28;99962;-74
2023/01/11 00:27:50;;;;;;;6.07;5.57;;;9.80;99.90;;;;;;4979250;28;101807;-74
2023/01/11 00:30:18;;;;;;;5.50;5.05;;;9.90;99.90;;;;;;4963702;28;98758;-74
2023/01/11 00:32:45;;;;;;;5.65;5.15;;;9.90;99.90;;;;;;4996175;28;98532;-74
2023/01/11 00:35:12;;;;;;;4.90;4.50;;;9.90;99.90;;;;;;5013738;28;99313;-74
2023/01/11 00:37:39;;;;;;;5.25;4.85;;;9.90;99.90;;;;;;4996229;28;99003;-74
2023/01/11 00:40:07;;;;;;;4.43;4.10;;;9.90;99.90;;;;;;4979567;28;98501;-74
2023/01/11 00:48:05;;;;;;;5.18;4.68;;;10.00;99.90;;;;;;5013567;28;99842;-74
2023/01/11 00:50:35;;;;;;;5.65;5.15;;;10.00;99.90;;;;;;5013795;28;98657;-72
2023/01/11 00:53:03;;;;;;;5.75;4.65;;;10.10;99.90;;;;;;4995957;28;99460;-74
2023/01/11 00:55:30;;;;;;;5.55;5.05;;;10.10;99.90;;;;;;4995637;28;99141;-71
2023/01/11 00:57:58;;;;;;;4.40;4.00;;;10.10;99.90;;;;;;4995245;28;101622;-72
2023/01/11 01:00:26;;;;;;;4.75;4.35;;;10.20;99.90;;;;;;4995929;28;99080;-73
2023/01/11 01:02:53;;;;;;;4.50;4.10;;;10.10;99.90;;;;;;5014063;28;97785;-73
2023/01/11 01:05:20;;;;;;;4.70;4.30;;;10.20;99.90;;;;;;4995249;28;99430;-73
2023/01/11 01:07:47;;;;;;;4.15;3.83;;;10.20;99.90;;;;;;5013480;28;99010;-73
2023/01/11 01:10:16;;;;;;;4.38;4.05;;;10.20;99.90;;;;;;4995369;28;99365;-73
2023/01/11 01:15:30;;;;;;;4.82;3.92;;;10.30;99.90;;;;;;5011870;28;102199;-73
2023/01/11 01:17:57;;;;;;;4.70;3.72;;;10.30;99.90;;;;;;5013134;28;98987;-73
2023/01/11 01:20:24;;;;;;;4.78;4.43;;;10.30;99.90;;;;;;4995818;28;98560;-73
2023/01/11 01:22:51;;;;;;;4.43;4.07;;;10.30;99.90;;;;;;5013431;28;98508;-72
2023/01/11 01:25:18;;;;;;;4.78;4.38;;;10.40;99.90;;;;;;5012295;28;99200;-73
2023/01/11 01:27:45;;;;;;;5.00;4.65;;;10.30;99.90;;;;;;4978562;28;102050;-73
2023/01/11 01:30:14;;;;;;;4.43;3.97;;;10.40;99.90;;;;;;4995708;28;98653;-73
2023/01/11 01:32:41;;;;;;;5.43;4.60;;;10.40;99.90;;;;;;4995637;28;98543;-73
2023/01/11 01:35:09;;;;;;;4.40;4.00;;;10.40;99.90;;;;;;4994434;28;102895;-73
2023/01/11 01:37:36;;;;;;;4.25;3.95;;;10.40;99.90;;;;;;4994941;28;99881;-73
2023/01/11 01:40:04;;;;;;;4.45;3.95;;;10.40;99.90;;;;;;4995687;28;98732;-73
2023/01/11 01:42:31;;;;;;;4.50;4.20;;;10.40;99.90;;;;;;5012995;28;98506;-73
2023/01/11 01:45:22;;;;;;;4.50;4.18;;;10.40;99.90;;;;;;4994469;28;103021;-73
2023/01/11 01:48:01;;;;;;;4.35;3.95;;;10.50;99.90;;;;;;5013011;28;99526;-73
2023/01/11 01:50:35;;;;;;;6.95;4.15;;;10.50;99.90;;;;;;5013206;28;98474;-72
2023/01/11 01:53:12;;;;;;;5.00;4.47;;;10.50;99.90;;;;;;4995428;28;97974;-72
2023/01/11 01:55:43;;;;;;;4.05;3.75;;;10.50;99.90;;;;;;4994823;28;99607;-73
2023/01/11 01:58:15;;;;;;;4.93;4.53;;;10.50;99.90;;;;;;4994967;28;98895;-72
2023/01/11 02:00:44;;;;;;;5.07;4.68;;;10.50;99.90;;;;;;5012536;28;99268;-74
2023/01/11 02:03:17;;;;;;;4.85;4.40;;;10.50;99.90;;;;;;5012645;28;98520;-74
2023/01/11 02:05:44;;;;;;;7.17;4.60;;;10.60;99.90;;;;;;5012242;28;99828;-74
2023/01/11 02:08:26;;;;;;;5.88;5.30;;;10.60;99.90;;;;;;4994773;28;99096;-74
2023/01/11 02:10:54;;;;;;;4.97;4.57;;;10.60;99.90;;;;;;4994647;28;98594;-73
2023/01/11 02:13:21;;;;;;;4.95;4.00;;;10.60;99.90;;;;;;4994617;28;99178;-73
2023/01/11 02:16:06;;;;;;;5.22;4.38;;;10.60;99.90;;;;;;4961619;28;102227;-73
2023/01/11 02:18:35;;;;;;;4.45;4.07;;;10.70;99.90;;;;;;4994885;28;99050;-74
2023/01/11 02:21:16;;;;;;;5.15;4.10;;;10.70;99.90;;;;;;4978212;28;98609;-73
2023/01/11 02:24:02;;;;;;;4.18;3.80;;;10.80;99.90;;;;;;4994926;28;98491;-73
2023/01/11 02:27:11;;;;;;;4.00;3.70;;;10.70;99.90;;;;;;5011543;28;100138;-73
2023/01/11 02:29:44;;;;;;;4.68;3.65;;;10.80;99.90;;;;;;4993989;28;102494;-73
2023/01/11 02:32:19;;;;;;;4.10;3.75;;;10.80;99.90;;;;;;5012672;28;98519;-73
2023/01/11 02:34:49;;;;;;;5.55;4.10;;;10.80;99.90;;;;;;5012091;28;98526;-74
2023/01/11 02:37:33;;;;;;;4.32;3.92;;;10.80;99.90;;;;;;5012052;28;99362;-73
2023/01/11 02:40:14;;;;;;;4.80;4.40;;;10.80;99.90;;;;;;5015871;28;98832;-74
2023/01/11 02:46:04;;;;;;;4.57;4.00;;;10.90;99.90;;;;;;5016112;28;97776;-74
2023/01/11 02:48:51;;;;;;;4.15;3.78;;;10.90;99.90;;;;;;4997703;28;99308;-74
2023/01/11 02:51:31;;;;;;;5.22;3.67;;;10.90;99.90;;;;;;5015474;28;99052;-74
2023/01/11 02:54:04;;;;;;;4.55;4.15;;;11.00;99.90;;;;;;5015813;28;99120;-72
2023/01/11 02:56:36;;;;;;;4.28;3.88;;;11.00;99.90;;;;;;5015811;28;98793;-72
2023/01/11 02:59:06;;;;;;;3.80;3.47;;;11.00;99.90;;;;;;4997262;28;101755;-73
2023/01/11 03:01:46;;;;;;;4.25;3.85;;;11.10;99.90;;;;;;5015378;28;99134;-73
2023/01/11 03:04:28;;;;;;;3.90;3.50;;;11.10;99.90;;;;;;4981392;28;98570;-73
2023/01/11 03:07:14;;;;;;;5.50;3.75;;;11.10;99.90;;;;;;4997720;28;98541;-73
2023/01/11 03:10:02;;;;;;;4.32;3.95;;;11.20;99.90;;;;;;5015136;28;99366;-73
2023/01/11 03:12:50;;;;;;;3.28;3.08;;;11.20;99.90;;;;;;5015261;28;99053;-73
2023/01/11 03:15:41;;;;;;;3.33;3.08;;;11.20;99.90;;;;;;4998061;28;99020;-73
2023/01/11 03:18:46;;;;;;;3.92;3.20;;;11.30;99.90;;;;;;5015682;28;99832;-73
2023/01/11 03:21:27;;;;;;;4.18;3.05;;;11.30;99.90;;;;;;4980188;28;102568;-73
2023/01/11 03:24:35;;;;;;;3.67;3.38;;;11.30;99.90;;;;;;4996896;28;102928;-73
2023/01/11 03:27:19;;;;;;;3.10;2.80;;;11.30;99.90;;;;;;4971240;28;98587;-73
2023/01/11 03:30:20;;;;;;;2.90;2.70;;;11.30;99.90;;;;;;5015296;28;99034;-73
2023/01/11 03:32:54;;;;;;;2.78;2.58;;;11.40;99.90;;;;;;4996852;28;99248;-73
2023/01/11 03:35:57;;;;;;;2.50;2.30;;;11.40;99.90;;;;;;5015108;28;99060;-73
2023/01/11 03:38:29;;;;;;;2.42;2.10;;;11.40;99.90;;;;;;5015218;28;98516;-73
2023/01/11 03:41:10;;;;;;;2.70;2.47;;;11.40;99.90;;;;;;5015504;28;97699;-73
2023/01/11 03:43:40;;;;;;;2.35;2.15;;;11.50;99.90;;;;;;4980052;28;101774;-73
2023/01/11 03:46:14;;;;;;;2.20;2.00;;;11.40;99.90;;;;;;4996987;28;99300;-73
2023/01/11 03:48:51;;;;;;;1.98;1.88;;;11.50;99.90;;;;;;5014649;28;99333;-73
2023/01/11 03:51:26;;;;;;;1.90;1.80;;;11.50;99.90;;;;;;5014094;28;98942;-73
2023/01/11 03:53:58;;;;;;;2.00;1.80;;;11.50;99.90;;;;;;5014227;28;99326;-73
2023/01/11 03:56:39;;;;;;;1.77;1.67;;;11.50;99.90;;;;;;5014817;28;99007;-73
2023/01/11 03:59:07;;;;;;;2.45;1.70;;;11.60;99.90;;;;;;4996941;28;98570;-73
2023/01/11 04:01:34;;;;;;;2.17;1.65;;;11.50;99.90;;;;;;4996387;28;101452;-74
2023/01/11 04:04:01;;;;;;;1.92;1.83;;;11.60;99.90;;;;;;5014133;28;99267;-73
2023/01/11 04:06:30;;;;;;;2.50;2.05;;;11.60;99.90;;;;;;5014619;28;98929;-73
2023/01/11 04:08:57;;;;;;;1.60;1.50;;;11.60;99.90;;;;;;5014665;28;98397;-73
2023/01/11 04:11:24;;;;;;;1.60;1.50;;;11.60;99.90;;;;;;5014583;28;98518;-73
2023/01/11 04:13:51;;;;;;;1.67;1.58;;;11.60;99.90;;;;;;5013765;28;100026;-73
2023/01/11 04:16:18;;;;;;;1.85;1.75;;;11.60;99.90;;;;;;5014121;28;100107;-73
2023/01/11 04:18:45;;;;;;;2.67;1.80;;;11.60;99.90;;;;;;4996582;28;99117;-73
2023/01/11 04:21:12;;;;;;;1.60;1.50;;;11.70;99.90;;;;;;4996697;28;98475;-73
2023/01/11 04:23:39;;;;;;;1.60;1.50;;;11.70;99.90;;;;;;5014200;28;99316;-74
2023/01/11 04:26:06;;;;;;;2.08;1.98;;;11.70;99.90;;;;;;5013284;28;98994;-73
2023/01/11 04:28:33;;;;;;;1.40;1.30;;;11.70;99.90;;;;;;4979764;28;98583;-73
2023/01/11 04:31:00;;;;;;;1.50;1.40;;;11.70;99.90;;;;;;4979922;28;97862;-73
2023/01/11 04:33:27;;;;;;;1.48;1.40;;;11.80;99.90;;;;;;5013850;28;99238;-73
2023/01/11 04:35:54;;;;;;;1.50;1.40;;;11.80;99.90;;;;;;4995917;28;99448;-73
2023/01/11 04:38:23;;;;;;;1.50;1.40;;;11.70;99.90;;;;;;5013883;28;99390;-73
2023/01/11 04:42:17;;;;;;;1.35;1.33;;;11.80;99.90;;;;;;4995992;28;98593;-73
2023/01/11 04:43:37;;;;;;;1.55;1.45;;;11.80;99.90;;;;;;5013766;28;99608;-73
2023/01/11 04:46:05;;;;;;;1.70;1.60;;;11.80;99.90;;;;;;4995467;28;101752;-73
2023/01/11 04:48:32;;;;;;;2.72;1.70;;;11.90;99.90;;;;;;5014111;28;98503;-73
2023/01/11 04:50:59;;;;;;;4.35;2.00;;;11.80;99.90;;;;;;4996137;28;98597;-73
2023/01/11 04:53:26;;;;;;;3.15;1.65;;;11.80;99.90;;;;;;5013649;28;99324;-73
2023/01/11 04:55:53;;;;;;;2.25;1.52;;;11.90;99.90;;;;;;4995686;28;104305;-73
2023/01/11 04:58:20;;;;;;;1.92;1.70;;;11.90;99.90;;;;;;4979733;28;98459;-73
2023/01/11 05:00:47;;;;;;;1.73;1.63;;;12.00;99.90;;;;;;4978618;28;98620;-73
2023/01/11 05:03:14;;;;;;;1.88;1.70;;;12.00;99.90;;;;;;4995448;28;100090;-73
2023/01/11 05:05:40;;;;;;;2.10;1.90;;;12.00;99.90;;;;;;4995299;28;102780;-73
2023/01/11 05:08:07;;;;;;;2.63;2.25;;;12.00;99.90;;;;;;5013825;28;98936;-73
2023/01/11 05:10:34;;;;;;;2.17;1.98;;;12.10;99.90;;;;;;4995657;28;98527;-73
2023/01/11 05:13:01;;;;;;;4.18;2.60;;;12.10;99.90;;;;;;5012885;28;99333;-73
2023/01/11 05:15:28;;;;;;;4.93;2.83;;;12.10;99.90;;;;;;5013419;28;98910;-73
2023/01/11 05:17:55;;;;;;;3.55;3.00;;;12.10;99.90;;;;;;4995900;28;98649;-73
2023/01/11 05:20:22;;;;;;;4.57;3.10;;;12.10;99.90;;;;;;4996259;28;97775;-73
2023/01/11 05:22:49;;;;;;;7.75;3.72;;;12.20;99.90;;;;;;5012905;28;99609;-73
2023/01/11 05:25:16;;;;;;;7.72;3.70;;;12.20;99.90;;;;;;4995120;28;98978;-73
2023/01/11 05:27:43;;;;;;;7.43;3.58;;;12.20;99.90;;;;;;5013159;28;99290;-73
2023/01/11 05:30:10;;;;;;;7.20;3.75;;;12.20;99.90;;;;;;4978681;28;98564;-73
2023/01/11 05:32:37;;;;;;;6.95;3.63;;;12.20;99.90;;;;;;4978450;28;102058;-73
2023/01/11 05:35:08;;;;;;;8.18;3.72;;;12.20;99.90;;;;;;4978284;28;101503;-73
2023/01/11 05:37:37;;;;;;;8.73;3.80;;;12.30;99.90;;;;;;5012423;28;98526;-73
2023/01/11 05:40:07;;;;;;;10.43;2.90;;;12.30;99.90;;;;;;5013063;28;98528;-73
2023/01/11 05:42:34;;;;;;;9.10;3.47;;;12.30;99.90;;;;;;4994800;28;102218;-73
2023/01/11 05:47:47;;;;;;;16.50;3.72;;;12.30;99.90;;;;;;4997817;28;98529;-73
2023/01/11 05:50:14;;;;;;;12.60;3.53;;;12.30;99.90;;;;;;4995301;28;98481;-73
2023/01/11 05:52:41;;;;;;;16.58;3.35;;;12.30;99.90;;;;;;5012466;28;100824;-73
2023/01/11 05:55:08;;;;;;;11.55;3.63;;;12.30;99.90;;;;;;4994400;28;102541;-72
2023/01/11 05:57:35;;;;;;;12.52;2.90;;;12.30;99.90;;;;;;4995517;28;98587;-73
2023/01/11 06:00:03;;;;;;;15.77;3.22;;;12.30;99.90;;;;;;4978099;28;98572;-73
2023/01/11 06:02:33;;;;;;;17.58;4.38;;;12.30;99.90;;;;;;4995104;28;99202;-73
2023/01/11 06:05:01;;;;;;;18.00;4.30;;;12.30;99.90;;;;;;4994571;28;99416;-73
2023/01/11 06:07:28;;;;;;;16.13;4.00;;;12.30;99.90;;;;;;4978543;28;98672;-73
2023/01/11 06:09:55;;;;;;;14.63;3.50;;;12.30;99.90;;;;;;4978481;28;97927;-73
2023/01/11 06:12:22;;;;;;;19.05;3.53;;;12.30;99.90;;;;;;4993933;28;99243;-73
2023/01/11 06:14:48;;;;;;;11.30;3.50;;;12.30;99.90;;;;;;4978000;28;99294;-73
2023/01/11 06:17:15;;;;;;;17.52;3.80;;;12.30;99.90;;;;;;4977742;28;99330;-73
2023/01/11 06:19:42;;;;;;;13.55;2.60;;;12.30;99.90;;;;;;4994989;28;98511;-73
2023/01/11 06:22:09;;;;;;;13.82;3.30;;;12.20;99.90;;;;;;4994466;28;99329;-73
2023/01/11 06:24:36;;;;;;;11.45;3.05;;;12.20;99.90;;;;;;4994623;28;99085;-72
2023/01/11 06:27:03;;;;;;;15.90;3.20;;;12.20;99.90;;;;;;5011989;28;98592;-73
2023/01/11 06:29:30;;;;;;;18.08;3.88;;;12.20;99.90;;;;;;5012613;28;98519;-73
2023/01/11 06:31:57;;;;;;;13.80;2.85;;;12.20;99.90;;;;;;5011967;28;99543;-72
2023/01/11 06:34:24;;;;;;;17.50;2.78;;;12.20;99.90;;;;;;4977668;28;101631;-72
2023/01/11 06:36:51;;;;;;;21.17;3.83;;;12.20;99.90;;;;;;5012690;28;98535;-72
2023/01/11 06:39:18;;;;;;;17.13;3.42;;;12.20;99.90;;;;;;4977561;28;98616;-73
2023/01/11 06:41:45;;;;;;;14.25;3.10;;;12.20;99.90;;;;;;5011550;28;100069;-73
2023/01/11 06:44:12;;;;;;;16.73;3.30;;;12.20;99.90;;;;;;5011796;28;99837;-74
2023/01/11 06:46:39;;;;;;;16.95;3.83;;;12.10;99.90;;;;;;5012355;28;98463;-73
2023/01/11 06:49:06;;;;;;;17.58;3.47;;;12.10;99.90;;;;;;5012146;28;98484;-73
2023/01/11 06:51:33;;;;;;;16.60;3.45;;;12.10;99.90;;;;;;5011689;28;104543;-74
2023/01/11 06:54:00;;;;;;;18.77;3.58;;;12.10;99.90;;;;;;5011939;28;99507;-73
2023/01/11 06:56:27;;;;;;;23.48;3.85;;;12.10;99.90;;;;;;4977843;28;98782;-73
2023/01/11 06:58:54;;;;;;;17.67;3.75;;;12.10;99.90;;;;;;4994451;28;97747;-73
2023/01/11 07:01:21;;;;;;;14.45;3.03;;;12.10;99.90;;;;;;5011468;28;99333;-74
2023/01/11 07:03:48;;;;;;;22.23;3.33;;;12.10;99.90;;;;;;5011829;28;99177;-73
2023/01/11 07:06:15;;;;;;;15.43;3.70;;;12.10;99.90;;;;;;4993761;28;99337;-73
2023/01/11 07:08:42;;;;;;;19.20;4.07;;;12.10;99.90;;;;;;4994523;28;98711;-73
2023/01/11 07:11:09;;;;;;;17.75;4.20;;;12.00;99.90;;;;;;5011280;28;99377;-73
2023/01/11 07:13:37;;;;;;;17.88;3.63;;;12.00;99.90;;;;;;5011703;28;98986;-73
2023/01/11 07:16:04;;;;;;;12.55;3.50;;;12.00;99.90;;;;;;4993711;28;98727;-73
2023/01/11 07:18:32;;;;;;;21.08;3.63;;;11.90;99.90;;;;;;5012036;28;98452;-73
2023/01/11 07:20:59;;;;;;;16.85;3.63;;;11.90;99.90;;;;;;4993835;28;99866;-73
2023/01/11 07:23:26;;;;;;;20.10;4.07;;;11.90;99.90;;;;;;4993513;28;101846;-74
2023/01/11 07:25:53;;;;;;;19.42;3.55;;;11.80;99.90;;;;;;5014906;28;98735;-73
2023/01/11 07:28:21;;;;;;;13.80;3.17;;;11.80;99.90;;;;;;4997164;28;98579;-73
2023/01/11 07:30:48;;;;;;;22.50;3.20;;;11.70;99.90;;;;;;4996675;28;100103;-73
2023/01/11 07:33:25;;;;;;;16.58;2.60;;;11.70;99.90;;;;;;4981543;28;102602;-73
2023/01/11 07:35:52;;;;;;;15.23;3.15;;;11.60;99.90;;;;;;4997187;28;98489;-73
2023/01/11 07:38:19;;;;;;;15.60;2.63;;;11.70;99.90;;;;;;5014860;28;99055;-73
2023/01/11 07:40:46;;;;;;;15.10;2.72;;;11.70;99.90;;;;;;4996714;28;105353;-73
2023/01/11 07:43:13;;;;;;;18.15;3.35;;;11.70;99.90;;;;;;5014351;28;98828;-73
2023/01/11 07:45:48;;;;;;;18.10;4.15;;;11.70;99.90;;;;;;5014923;28;98537;-73
2023/01/11 07:48:23;;;;;;;19.63;3.55;;;11.80;99.90;;;;;;4997698;28;97693;-73
2023/01/11 07:50:51;;;;;;;18.42;3.03;;;11.80;99.90;;;;;;5014820;28;99409;-73
2023/01/11 07:53:19;;;;;;;19.65;3.67;;;11.70;99.90;;;;;;5014161;28;98976;-73
2023/01/11 07:55:46;;;;;;;17.45;3.85;;;11.80;99.90;;;;;;4996484;28;99320;-73
2023/01/11 07:58:14;;;;;;;18.90;4.10;;;11.70;99.90;;;;;;5014747;28;98548;-73
2023/01/11 08:00:41;;;;;;;17.35;4.13;;;11.70;99.90;;;;;;4996152;28;102362;-73
2023/01/11 08:03:08;;;;;;;16.70;3.75;;;11.70;99.90;;;;;;5014529;28;99236;-73
2023/01/11 08:05:36;;;;;;;16.38;3.05;;;11.70;99.90;;;;;;5014865;28;98556;-73
2023/01/11 08:08:04;;;;;;;21.08;3.97;;;11.80;99.90;;;;;;4996710;28;98683;-73
2023/01/11 08:10:31;;;;;;;17.42;3.33;;;11.80;99.90;;;;;;4979374;28;105473;-73
2023/01/11 08:15:44;;;;;;;16.38;3.50;;;11.80;99.90;;;;;;5014939;28;99329;-73
2023/01/11 08:18:12;;;;;;;17.73;3.70;;;11.80;99.90;;;;;;5014343;28;98522;-73
2023/01/11 08:20:39;;;;;;;18.65;3.90;;;11.80;99.90;;;;;;5013685;28;99968;-74
2023/01/11 08:23:08;;;;;;;17.17;3.83;;;11.80;99.90;;;;;;4996251;28;100006;-73
2023/01/11 08:25:36;;;;;;;16.63;4.18;;;11.80;99.90;;;;;;5014067;28;98562;-73
2023/01/11 08:28:05;;;;;;;16.15;3.42;;;11.80;99.90;;;;;;4996893;28;98647;-74
2023/01/11 08:30:32;;;;;;;16.73;4.43;;;11.80;99.90;;;;;;4979489;28;99404;-73
2023/01/11 08:33:00;;;;;;;21.42;4.03;;;11.80;99.90;;;;;;5014060;28;99151;-73
2023/01/11 08:35:28;;;;;;;15.75;3.00;;;11.80;99.90;;;;;;5013547;28;99008;-73
2023/01/11 08:37:55;;;;;;;12.52;2.83;;;11.80;99.90;;;;;;4996451;28;97796;-73
2023/01/11 08:40:24;;;;;;;10.85;3.28;;;11.80;99.90;;;;;;5013587;28;99284;-74
2023/01/11 08:42:55;;;;;;;12.43;2.97;;;11.80;99.90;;;;;;4995678;28;101807;-73
2023/01/11 08:45:23;;;;;;;15.23;3.38;;;11.80;99.90;;;;;;4996096;28;99572;-74
2023/01/11 08:47:50;;;;;;;14.38;2.90;;;11.80;99.90;;;;;;4995575;28;98782;-74
2023/01/11 08:50:19;;;;;;;13.30;3.17;;;11.70;99.90;;;;;;4995976;28;99473;-74
2023/01/11 08:52:46;;;;;;;13.15;2.70;;;11.70;99.90;;;;;;5013584;28;98982;-74
2023/01/11 08:55:13;;;;;;;14.20;2.40;;;11.60;99.90;;;;;;5013912;28;98506;-74
2023/01/11 08:57:40;;;;;;;12.65;2.88;;;11.50;99.90;;;;;;4995986;28;99002;-74
2023/01/11 09:00:08;;;;;;;13.52;2.70;;;11.40;99.90;;;;;;5013625;28;99510;-74
2023/01/11 09:02:35;;;;;;;11.98;2.25;;;11.30;99.90;;;;;;4995441;28;100061;-74
2023/01/11 09:05:02;;;;;;;8.32;1.95;;;11.30;99.90;;;;;;5013844;28;98934;-73
2023/01/11 09:07:29;;;;;;;12.80;2.13;;;11.20;99.90;;;;;;4979268;28;98540;-74
2023/01/11 09:09:56;;;;;;;16.42;2.72;;;11.10;99.90;;;;;;4995414;28;99971;-74
2023/01/11 09:12:23;;;;;;;8.25;2.28;;;11.10;99.90;;;;;;4995404;28;99876;-73
2023/01/11 09:14:50;;;;;;;10.90;2.17;;;11.00;99.90;;;;;;4979416;28;98454;-73
2023/01/11 09:17:17;;;;;;;8.75;2.00;;;11.00;99.90;;;;;;4995450;28;99129;-73
2023/01/11 09:19:44;;;;;;;13.27;2.03;;;11.00;99.90;;;;;;5013231;28;99251;-73
2023/01/11 09:22:11;;;;;;;11.25;1.73;;;11.00;99.90;;;;;;5013015;28;99218;-73
2023/01/11 09:24:37;;;;;;;9.13;2.28;;;11.00;99.90;;;;;;5013363;28;98559;-73
2023/01/11 09:27:04;;;;;;;7.72;1.95;;;10.90;99.90;;;;;;4992486;28;97708;-73
2023/01/11 09:29:32;;;;;;;14.23;2.25;;;10.80;99.90;;;;;;4992846;28;99249;-73
2023/01/11 09:32:02;;;;;;;8.20;2.58;;;10.70;99.90;;;;;;4991657;28;101334;-73
2023/01/11 09:34:30;;;;;;;9.70;2.03;;;10.70;99.90;;;;;;4991392;28;99353;-74
2023/01/11 09:36:59;;;;;;;8.30;2.05;;;10.70;99.90;;;;;;4975816;28;99029;-73
2023/01/11 09:39:27;;;;;;;8.73;1.70;;;10.70;99.90;;;;;;4992568;28;99295;-73
2023/01/11 09:42:14;;;;;;;8.73;1.67;;;10.70;99.90;;;;;;4991375;28;100010;-73
2023/01/11 09:45:10;;;;;;;4.85;1.55;;;10.80;99.90;;;;;;4993106;28;98407;-73
2023/01/11 09:47:51;;;;;;;7.05;1.90;;;10.90;99.90;;;;;;5005881;28;98543;-73
2023/01/11 09:50:25;;;;;;;10.90;2.45;;;10.90;99.90;;;;;;4975050;28;101627;-73
2023/01/11 09:52:53;;;;;;;;;;;10.90;99.90;;;;;;4992378;28;100155;-74
2023/01/11 09:55:31;;;;;;;7.82;1.50;;;10.80;99.90;;;;;;4992847;28;98510;-73
2023/01/11 09:58:27;;;;;;;8.98;1.65;;;10.80;99.90;;;;;;4992140;28;98911;-74
2023/01/11 10:01:35;;;;;;;8.35;1.77;;;10.80;99.90;;;;;;4990820;28;99846;-73
2023/01/11 10:04:23;;;;;;;7.93;1.90;;;10.70;99.90;;;;;;4973493;28;99956;-73
2023/01/11 10:07:23;;;;;;;15.85;2.45;;;10.70;99.90;;;;;;4992741;28;98503;-74
2023/01/11 10:10:14;;;;;;;9.70;2.20;;;10.70;99.90;;;;;;4993008;28;98488;-74
2023/01/11 10:13:18;;;;;;;10.40;2.08;;;10.70;99.90;;;;;;4991125;28;102180;-73
2023/01/11 10:16:49;;;;;;;12.73;2.63;;;10.60;99.90;;;;;;4990988;28;101764;-73
2023/01/11 10:19:46;;;;;;;6.68;1.85;;;10.60;99.90;;;;;;4991505;28;98579;-74
2023/01/11 10:22:22;;;;;;;5.22;2.40;;;10.60;99.90;;;;;;4993137;28;97741;-73
2023/01/11 10:24:57;;;;;;;7.15;2.22;;;10.60;99.90;;;;;;4992274;28;99738;-73
2023/01/11 10:27:32;;;;;;;5.78;1.60;;;10.70;99.90;;;;;;5010356;28;99219;-73
2023/01/11 10:30:29;;;;;;;12.77;2.72;;;10.70;99.90;;;;;;5012367;28;99129;-73
2023/01/11 10:39:06;;;;;;;10.30;2.30;;;10.90;99.90;;;;;;4970386;28;100661;-74
2023/01/11 10:41:53;;;;;;;9.93;2.25;;;10.90;99.90;;;;;;5012895;28;98937;-73
2023/01/11 10:44:35;;;;;;;7.43;1.63;;;11.00;99.90;;;;;;4994335;28;98554;-73
2023/01/11 10:47:15;;;;;;;8.07;2.15;;;11.10;99.90;;;;;;4994240;28;99323;-74
2023/01/11 10:50:11;;;;;;;10.13;2.08;;;11.20;99.90;;;;;;4994491;28;99050;-73
2023/01/11 10:52:46;;;;;;;10.88;2.33;;;11.20;99.90;;;;;;4994444;28;98525;-74
2023/01/11 10:55:21;;;;;;;10.25;2.60;;;11.20;99.90;;;;;;5012304;28;98511;-73
2023/01/11 10:58:17;;;;;;;8.82;2.30;;;11.30;99.90;;;;;;5011452;28;100066;-74
2023/01/11 11:00:57;;;;;;;12.07;2.53;;;11.50;99.90;;;;;;5014932;28;99706;-74
2023/01/11 11:03:39;;;;;;;14.93;4.53;;;11.50;99.90;;;;;;4997678;28;99341;-74
2023/01/11 11:06:46;;;;;;;7.50;2.50;;;11.70;99.90;;;;;;5015938;28;98481;-74
2023/01/11 11:09:31;;;;;;;8.43;2.22;;;11.90;99.90;;;;;;4997382;28;99669;-74
2023/01/11 11:12:09;;;;;;;15.27;2.65;;;11.90;99.90;;;;;;4998050;28;99032;-74
2023/01/11 11:14:56;;;;;;;14.20;2.83;;;11.90;99.90;;;;;;5015666;28;98756;-74
2023/01/11 11:17:35;;;;;;;14.05;2.75;;;12.00;99.90;;;;;;4997780;28;97806;-73
2023/01/11 11:20:13;;;;;;;11.95;3.22;;;12.10;99.90;;;;;;5014748;28;99380;-73
2023/01/11 11:22:41;;;;;;;7.72;2.65;;;12.20;99.90;;;;;;4997392;28;98925;-73
2023/01/11 11:25:16;;;;;;;10.60;2.50;;;12.30;99.90;;;;;;4980865;28;99913;-73
2023/01/11 11:27:50;;;;;;;12.75;3.10;;;12.40;99.90;;;;;;4997486;28;98558;-74
2023/01/11 11:30:38;;;;;;;9.27;2.58;;;12.40;99.90;;;;;;5015084;28;99763;-73
2023/01/11 11:33:13;;;;;;;10.60;2.90;;;12.50;99.90;;;;;;4996654;28;101756;-73
2023/01/11 11:35:45;;;;;;;12.10;2.85;;;12.40;99.90;;;;;;5015232;28;98407;-73
2023/01/11 11:38:22;;;;;;;12.60;3.00;;;12.30;99.90;;;;;;5015208;28;98589;-73
2023/01/11 11:41:08;;;;;;;13.63;2.75;;;12.30;99.90;;;;;;4996897;28;99246;-73
2023/01/11 11:43:40;;;;;;;17.67;3.65;;;12.30;99.90;;;;;;4997164;28;99109;-73
2023/01/11 11:46:13;;;;;;;11.65;2.92;;;12.30;99.90;;;;;;4997612;28;98505;-73
2023/01/11 11:49:07;;;;;;;12.32;2.97;;;12.40;99.90;;;;;;5014823;28;98545;-73
2023/01/11 11:51:34;;;;;;;11.10;2.80;;;12.40;99.90;;;;;;4996407;28;100017;-73
2023/01/11 11:54:02;;;;;;;10.77;2.95;;;12.30;99.90;;;;;;4996792;28;99711;-73
2023/01/11 11:56:32;;;;;;;10.82;2.63;;;12.20;99.90;;;;;;5015048;28;98492;-73
2023/01/11 11:59:08;;;;;;;14.82;2.80;;;12.10;99.90;;;;;;5014808;28;98484;-73
2023/01/11 12:01:39;;;;;;;10.70;2.42;;;12.00;99.90;;;;;;5014690;28;99378;-73
2023/01/11 12:04:16;;;;;;;10.98;2.58;;;11.90;99.90;;;;;;5014448;28;99061;-73
2023/01/11 12:06:49;;;;;;;11.75;2.88;;;11.90;99.90;;;;;;4996969;28;98418;-73
2023/01/11 12:09:30;;;;;;;11.82;3.05;;;11.80;99.90;;;;;;4997505;28;97740;-73
2023/01/11 12:11:57;;;;;;;11.45;2.95;;;11.80;99.90;;;;;;4995196;28;99172;-73
2023/01/11 12:14:28;;;;;;;10.85;3.10;;;11.70;99.90;;;;;;5014212;28;103319;-73
2023/01/11 12:16:57;;;;;;;16.80;3.05;;;11.70;99.90;;;;;;4979509;28;99645;-73
2023/01/11 12:19:27;;;;;;;17.10;3.30;;;11.80;99.90;;;;;;4996431;28;98542;-73
2023/01/11 12:22:10;;;;;;;14.57;3.15;;;11.80;99.90;;;;;;4995951;28;100424;-73
2023/01/11 12:24:37;;;;;;;11.60;2.92;;;11.90;99.90;;;;;;5014188;28;99136;-73
2023/01/11 12:27:22;;;;;;;11.80;2.90;;;11.90;99.90;;;;;;4992623;28;98450;-74
2023/01/11 12:30:07;;;;;;;12.13;3.25;;;12.00;99.90;;;;;;4992261;28;98610;-74
2023/01/11 12:32:58;;;;;;;10.98;2.47;;;12.10;99.90;;;;;;4994118;28;99568;-74
2023/01/11 12:35:51;;;;;;;13.73;2.75;;;12.10;99.90;;;;;;4992381;28;98812;-74
2023/01/11 12:38:38;;;;;;;17.40;3.03;;;12.10;99.90;;;;;;5007287;28;99479;-74
2023/01/11 12:41:43;;;;;;;10.85;3.05;;;12.10;99.90;;;;;;4994219;28;98702;-74
2023/01/11 12:44:33;;;;;;;11.50;3.15;;;12.10;99.90;;;;;;4993441;28;100394;-74
2023/01/11 12:47:11;;;;;;;14.95;3.17;;;12.10;99.90;;;;;;4993711;28;99719;-74
2023/01/11 12:49:49;;;;;;;11.68;3.00;;;12.10;99.90;;;;;;4994183;28;98494;-74
2023/01/11 12:52:40;;;;;;;16.20;2.83;;;12.10;99.90;;;;;;4992679;28;98495;-73
2023/01/11 12:55:19;;;;;;;15.07;2.97;;;12.10;99.90;;;;;;4992389;28;99373;-73
2023/01/11 12:57:59;;;;;;;13.18;2.80;;;12.10;99.90;;;;;;4991818;28;101546;-73
2023/01/11 13:00:47;;;;;;;15.75;2.83;;;12.10;99.90;;;;;;4992807;28;98949;-73
2023/01/11 13:03:42;;;;;;;13.25;2.72;;;12.20;99.90;;;;;;4994273;28;97812;-74
2023/01/11 13:06:12;;;;;;;13.70;2.88;;;12.20;99.90;;;;;;4993357;28;99298;-73
2023/01/11 13:08:42;;;;;;;14.50;2.50;;;12.10;99.90;;;;;;4991794;28;101800;-74
2023/01/11 13:11:36;;;;;;;12.15;2.95;;;12.10;99.90;;;;;;4993253;28;99664;-73
2023/01/11 13:14:09;;;;;;;12.75;3.05;;;12.10;99.90;;;;;;4993711;28;98587;-73
2023/01/11 13:16:56;;;;;;;12.43;2.97;;;12.00;99.90;;;;;;5008736;28;101751;-73
2023/01/11 13:19:56;;;;;;;16.75;2.63;;;12.00;99.90;;;;;;4971875;28;101584;-74
2023/01/11 13:22:32;;;;;;;12.50;2.45;;;12.00;99.90;;;;;;4991975;28;98523;-74
2023/01/11 13:25:01;;;;;;;14.95;2.95;;;12.00;99.90;;;;;;4992255;28;98462;-74
2023/01/11 13:27:30;;;;;;;12.80;3.35;;;12.10;99.90;;;;;;4991700;28;99436;-74
2023/01/11 13:30:00;;;;;;;13.68;2.92;;;12.00;99.90;;;;;;4975346;28;102331;-73
2023/01/11 13:32:36;;;;;;;13.85;3.05;;;11.90;99.90;;;;;;4993323;28;98769;-73
2023/01/11 13:35:16;;;;;;;10.48;2.60;;;11.80;99.90;;;;;;4991855;28;98639;-73